sensor_id;sensor_type;location;lat;lon;timestamp;P1;durP1;ratioP1;P2;durP2;ratioP2
55647;SDS011;45266;48.756;9.246;2022-11-14T00:00:54;30.23;;;16.67;;
55647;SDS011;45266;48.756;9.246;2022-11-14T00:01:56;28.07;;;16.03;;
55647;SDS011;45266;48.756;9.246;2022-11-14T00:03:01;23.20;;;15.33;;
55647;SDS011;45266;48.756;9.246;2022-11-14T00:04:05;22.90;;;14.73;;
55647;SDS011;45266;48.756;9.246;2022-11-14T00:05:07;23.70;;;15.00;;
55647;SDS011;45266;48.756;9.246;2022-11-14T00:06:10;27.70;;;15.57;;
55647;SDS011;45266;48.756;9.246;2022-11-14T00:07:12;24.90;;;15.53;;
55647;SDS011;45266;48.756;9.246;2022-11-14T00:08:18;26.63;;;15.23;;
55647;SDS011;45266;48.756;9.246;2022-11-14T00:09:26;25.53;;;15.73;;
55647;SDS011;45266;48.756;9.246;2022-11-14T00:10:28;28.30;;;15.90;;
55647;SDS011;45266;48.756;9.246;2022-11-14T00:11:30;26.87;;;16.40;;
55647;SDS011;45266;48.756;9.246;2022-11-14T00:12:31;23.73;;;14.30;;
55647;SDS011;45266;48.756;9.246;2022-11-14T00:13:34;27.13;;;15.03;;
55647;SDS011;45266;48.756;9.246;2022-11-14T00:14:36;23.13;;;15.23;;
55647;SDS011;45266;48.756;9.246;2022-11-14T00:15:38;25.37;;;15.57;;
55647;SDS011;45266;48.756;9.246;2022-11-14T00:16:39;25.17;;;15.03;;
55647;SDS011;45266;48.756;9.246;2022-11-14T00:17:41;23.67;;;15.27;;
55647;SDS011;45266;48.756;9.246;2022-11-14T00:18:43;25.57;;;15.10;;
55647;SDS011;45266;48.756;9.246;2022-11-14T00:19:45;25.40;;;14.73;;
55647;SDS011;45266;48.756;9.246;2022-11-14T00:20:47;24.90;;;14.50;;
55647;SDS011;45266;48.756;9.246;2022-11-14T00:21:49;24.90;;;14.80;;
55647;SDS011;45266;48.756;9.246;2022-11-14T00:22:53;25.23;;;14.80;;
55647;SDS011;45266;48.756;9.246;2022-11-14T00:23:54;24.80;;;14.57;;
55647;SDS011;45266;48.756;9.246;2022-11-14T00:24:56;22.80;;;14.13;;
55647;SDS011;45266;48.756;9.246;2022-11-14T00:25:58;25.37;;;14.53;;
55647;SDS011;45266;48.756;9.246;2022-11-14T00:27:00;23.73;;;15.60;;
55647;SDS011;45266;48.756;9.246;2022-11-14T00:28:01;22.20;;;14.40;;
55647;SDS011;45266;48.756;9.246;2022-11-14T00:29:03;22.53;;;14.27;;
55647;SDS011;45266;48.756;9.246;2022-11-14T00:30:05;23.33;;;14.17;;
55647;SDS011;45266;48.756;9.246;2022-11-14T00:31:08;22.03;;;14.00;;
55647;SDS011;45266;48.756;9.246;2022-11-14T00:32:10;23.00;;;14.40;;
55647;SDS011;45266;48.756;9.246;2022-11-14T00:33:12;21.60;;;13.70;;
55647;SDS011;45266;48.756;9.246;2022-11-14T00:34:20;22.10;;;14.10;;
55647;SDS011;45266;48.756;9.246;2022-11-14T00:35:22;23.27;;;13.43;;
55647;SDS011;45266;48.756;9.246;2022-11-14T00:36:24;23.70;;;14.47;;
55647;SDS011;45266;48.756;9.246;2022-11-14T00:37:25;20.33;;;13.67;;
55647;SDS011;45266;48.756;9.246;2022-11-14T00:38:27;23.13;;;14.13;;
55647;SDS011;45266;48.756;9.246;2022-11-14T00:39:29;21.70;;;12.97;;
55647;SDS011;45266;48.756;9.246;2022-11-14T00:40:31;19.70;;;13.33;;
55647;SDS011;45266;48.756;9.246;2022-11-14T00:41:33;19.10;;;12.90;;
55647;SDS011;45266;48.756;9.246;2022-11-14T00:42:34;20.40;;;13.07;;
55647;SDS011;45266;48.756;9.246;2022-11-14T00:43:36;19.30;;;12.87;;
55647;SDS011;45266;48.756;9.246;2022-11-14T00:44:38;21.33;;;13.60;;
55647;SDS011;45266;48.756;9.246;2022-11-14T00:45:41;21.80;;;13.93;;
55647;SDS011;45266;48.756;9.246;2022-11-14T00:46:46;20.03;;;12.50;;
55647;SDS011;45266;48.756;9.246;2022-11-14T00:47:48;21.80;;;14.07;;
55647;SDS011;45266;48.756;9.246;2022-11-14T00:48:50;21.30;;;13.10;;
55647;SDS011;45266;48.756;9.246;2022-11-14T00:49:52;22.37;;;13.83;;
55647;SDS011;45266;48.756;9.246;2022-11-14T00:50:53;20.33;;;12.97;;
55647;SDS011;45266;48.756;9.246;2022-11-14T00:51:55;20.53;;;13.40;;
55647;SDS011;45266;48.756;9.246;2022-11-14T00:52:57;20.87;;;12.27;;
55647;SDS011;45266;48.756;9.246;2022-11-14T00:53:58;20.80;;;12.40;;
55647;SDS011;45266;48.756;9.246;2022-11-14T00:55:00;19.27;;;13.17;;
55647;SDS011;45266;48.756;9.246;2022-11-14T00:56:02;22.60;;;13.60;;
55647;SDS011;45266;48.756;9.246;2022-11-14T00:57:04;17.33;;;12.50;;
55647;SDS011;45266;48.756;9.246;2022-11-14T00:58:06;19.53;;;12.53;;
55647;SDS011;45266;48.756;9.246;2022-11-14T00:59:08;19.97;;;12.50;;
55647;SDS011;45266;48.756;9.246;2022-11-14T01:00:11;23.20;;;12.90;;
55647;SDS011;45266;48.756;9.246;2022-11-14T01:01:14;18.10;;;12.23;;
55647;SDS011;45266;48.756;9.246;2022-11-14T01:02:16;18.50;;;11.83;;
55647;SDS011;45266;48.756;9.246;2022-11-14T01:03:18;17.57;;;12.27;;
55647;SDS011;45266;48.756;9.246;2022-11-14T01:04:20;18.57;;;12.20;;
55647;SDS011;45266;48.756;9.246;2022-11-14T01:05:22;17.33;;;11.70;;
55647;SDS011;45266;48.756;9.246;2022-11-14T01:06:24;16.40;;;11.30;;
55647;SDS011;45266;48.756;9.246;2022-11-14T01:07:26;19.57;;;12.33;;
55647;SDS011;45266;48.756;9.246;2022-11-14T01:08:28;16.20;;;10.53;;
55647;SDS011;45266;48.756;9.246;2022-11-14T01:09:30;16.77;;;11.70;;
55647;SDS011;45266;48.756;9.246;2022-11-14T01:10:32;15.30;;;10.80;;
55647;SDS011;45266;48.756;9.246;2022-11-14T01:11:34;16.33;;;11.47;;
55647;SDS011;45266;48.756;9.246;2022-11-14T01:12:36;16.77;;;11.10;;
55647;SDS011;45266;48.756;9.246;2022-11-14T01:13:38;17.00;;;11.10;;
55647;SDS011;45266;48.756;9.246;2022-11-14T01:14:40;15.17;;;10.70;;
55647;SDS011;45266;48.756;9.246;2022-11-14T01:15:46;18.70;;;11.40;;
55647;SDS011;45266;48.756;9.246;2022-11-14T01:16:48;16.90;;;10.87;;
55647;SDS011;45266;48.756;9.246;2022-11-14T01:17:50;17.70;;;11.87;;
55647;SDS011;45266;48.756;9.246;2022-11-14T01:18:52;16.77;;;10.80;;
55647;SDS011;45266;48.756;9.246;2022-11-14T01:19:54;20.57;;;11.80;;
55647;SDS011;45266;48.756;9.246;2022-11-14T01:20:55;18.77;;;10.80;;
55647;SDS011;45266;48.756;9.246;2022-11-14T01:21:57;18.07;;;10.87;;
55647;SDS011;45266;48.756;9.246;2022-11-14T01:23:06;15.40;;;10.47;;
55647;SDS011;45266;48.756;9.246;2022-11-14T01:24:09;18.03;;;11.23;;
55647;SDS011;45266;48.756;9.246;2022-11-14T01:25:11;19.77;;;11.70;;
55647;SDS011;45266;48.756;9.246;2022-11-14T01:26:13;18.23;;;11.13;;
55647;SDS011;45266;48.756;9.246;2022-11-14T01:27:14;18.70;;;11.37;;
55647;SDS011;45266;48.756;9.246;2022-11-14T01:28:17;18.00;;;10.63;;
55647;SDS011;45266;48.756;9.246;2022-11-14T01:29:20;19.40;;;10.63;;
55647;SDS011;45266;48.756;9.246;2022-11-14T01:30:22;17.37;;;10.53;;
55647;SDS011;45266;48.756;9.246;2022-11-14T01:31:23;15.30;;;10.17;;
55647;SDS011;45266;48.756;9.246;2022-11-14T01:32:26;16.83;;;10.57;;
55647;SDS011;45266;48.756;9.246;2022-11-14T01:33:28;17.57;;;10.77;;
55647;SDS011;45266;48.756;9.246;2022-11-14T01:34:29;16.27;;;10.80;;
55647;SDS011;45266;48.756;9.246;2022-11-14T01:35:32;14.10;;;9.87;;
55647;SDS011;45266;48.756;9.246;2022-11-14T01:36:35;17.07;;;11.03;;
55647;SDS011;45266;48.756;9.246;2022-11-14T01:37:36;15.33;;;9.97;;
55647;SDS011;45266;48.756;9.246;2022-11-14T01:38:38;16.07;;;10.83;;
55647;SDS011;45266;48.756;9.246;2022-11-14T01:39:40;16.43;;;10.70;;
55647;SDS011;45266;48.756;9.246;2022-11-14T01:40:42;16.13;;;10.57;;
55647;SDS011;45266;48.756;9.246;2022-11-14T01:41:45;16.83;;;10.23;;
55647;SDS011;45266;48.756;9.246;2022-11-14T01:47:06;15.60;;;10.00;;
55647;SDS011;45266;48.756;9.246;2022-11-14T01:49:41;15.43;;;9.50;;
55647;SDS011;45266;48.756;9.246;2022-11-14T01:50:46;14.03;;;9.90;;
55647;SDS011;45266;48.756;9.246;2022-11-14T01:53:06;16.87;;;10.33;;
55647;SDS011;45266;48.756;9.246;2022-11-14T01:54:09;16.40;;;10.47;;
55647;SDS011;45266;48.756;9.246;2022-11-14T01:55:16;17.47;;;10.77;;
55647;SDS011;45266;48.756;9.246;2022-11-14T01:56:20;17.67;;;10.73;;
55647;SDS011;45266;48.756;9.246;2022-11-14T01:57:28;16.37;;;10.27;;
55647;SDS011;45266;48.756;9.246;2022-11-14T01:58:34;14.53;;;9.63;;
55647;SDS011;45266;48.756;9.246;2022-11-14T01:59:40;16.67;;;10.23;;
55647;SDS011;45266;48.756;9.246;2022-11-14T02:00:45;18.83;;;10.17;;
55647;SDS011;45266;48.756;9.246;2022-11-14T02:01:47;17.83;;;10.73;;
55647;SDS011;45266;48.756;9.246;2022-11-14T02:02:51;17.03;;;10.53;;
55647;SDS011;45266;48.756;9.246;2022-11-14T02:03:53;15.63;;;10.17;;
55647;SDS011;45266;48.756;9.246;2022-11-14T02:12:05;17.00;;;9.27;;
55647;SDS011;45266;48.756;9.246;2022-11-14T02:13:10;15.37;;;9.50;;
55647;SDS011;45266;48.756;9.246;2022-11-14T02:14:11;15.10;;;10.20;;
55647;SDS011;45266;48.756;9.246;2022-11-14T02:15:13;16.87;;;10.90;;
55647;SDS011;45266;48.756;9.246;2022-11-14T02:16:15;19.50;;;11.80;;
55647;SDS011;45266;48.756;9.246;2022-11-14T02:17:17;20.27;;;12.43;;
55647;SDS011;45266;48.756;9.246;2022-11-14T02:18:30;16.90;;;10.53;;
55647;SDS011;45266;48.756;9.246;2022-11-14T02:19:39;15.23;;;10.70;;
55647;SDS011;45266;48.756;9.246;2022-11-14T02:20:42;17.23;;;10.60;;
55647;SDS011;45266;48.756;9.246;2022-11-14T02:21:44;15.40;;;10.77;;
55647;SDS011;45266;48.756;9.246;2022-11-14T02:22:46;17.23;;;10.37;;
55647;SDS011;45266;48.756;9.246;2022-11-14T02:23:48;18.00;;;11.10;;
55647;SDS011;45266;48.756;9.246;2022-11-14T02:24:49;18.83;;;11.47;;
55647;SDS011;45266;48.756;9.246;2022-11-14T02:25:51;16.43;;;10.70;;
55647;SDS011;45266;48.756;9.246;2022-11-14T02:26:53;19.43;;;10.90;;
55647;SDS011;45266;48.756;9.246;2022-11-14T02:27:55;15.13;;;9.90;;
55647;SDS011;45266;48.756;9.246;2022-11-14T02:28:58;17.90;;;10.80;;
55647;SDS011;45266;48.756;9.246;2022-11-14T02:30:07;19.10;;;11.00;;
55647;SDS011;45266;48.756;9.246;2022-11-14T02:31:13;17.03;;;10.33;;
55647;SDS011;45266;48.756;9.246;2022-11-14T02:32:16;15.70;;;10.23;;
55647;SDS011;45266;48.756;9.246;2022-11-14T02:33:17;15.03;;;10.70;;
55647;SDS011;45266;48.756;9.246;2022-11-14T02:34:19;17.33;;;11.03;;
55647;SDS011;45266;48.756;9.246;2022-11-14T02:35:21;19.37;;;11.23;;
55647;SDS011;45266;48.756;9.246;2022-11-14T02:36:23;18.80;;;11.80;;
55647;SDS011;45266;48.756;9.246;2022-11-14T02:37:24;14.27;;;10.20;;
55647;SDS011;45266;48.756;9.246;2022-11-14T02:38:26;18.73;;;10.90;;
55647;SDS011;45266;48.756;9.246;2022-11-14T02:39:29;15.70;;;10.73;;
55647;SDS011;45266;48.756;9.246;2022-11-14T02:40:30;16.83;;;10.63;;
55647;SDS011;45266;48.756;9.246;2022-11-14T02:41:32;16.97;;;10.47;;
55647;SDS011;45266;48.756;9.246;2022-11-14T02:42:34;15.77;;;10.80;;
55647;SDS011;45266;48.756;9.246;2022-11-14T02:43:36;16.73;;;10.53;;
55647;SDS011;45266;48.756;9.246;2022-11-14T02:44:37;15.93;;;10.60;;
55647;SDS011;45266;48.756;9.246;2022-11-14T02:45:39;15.87;;;10.37;;
55647;SDS011;45266;48.756;9.246;2022-11-14T02:46:41;16.77;;;10.67;;
55647;SDS011;45266;48.756;9.246;2022-11-14T02:47:43;14.60;;;10.17;;
55647;SDS011;45266;48.756;9.246;2022-11-14T02:48:44;18.83;;;10.93;;
55647;SDS011;45266;48.756;9.246;2022-11-14T02:49:46;15.50;;;10.67;;
55647;SDS011;45266;48.756;9.246;2022-11-14T02:50:48;15.60;;;10.70;;
55647;SDS011;45266;48.756;9.246;2022-11-14T02:51:50;17.10;;;11.20;;
55647;SDS011;45266;48.756;9.246;2022-11-14T02:52:51;19.70;;;11.40;;
55647;SDS011;45266;48.756;9.246;2022-11-14T02:53:54;18.07;;;12.17;;
55647;SDS011;45266;48.756;9.246;2022-11-14T02:54:56;18.47;;;10.93;;
55647;SDS011;45266;48.756;9.246;2022-11-14T02:55:58;15.93;;;10.43;;
55647;SDS011;45266;48.756;9.246;2022-11-14T02:56:59;18.43;;;10.60;;
55647;SDS011;45266;48.756;9.246;2022-11-14T02:58:01;18.37;;;10.63;;
55647;SDS011;45266;48.756;9.246;2022-11-14T02:59:03;17.33;;;10.80;;
55647;SDS011;45266;48.756;9.246;2022-11-14T03:00:05;18.13;;;11.40;;
55647;SDS011;45266;48.756;9.246;2022-11-14T03:01:14;20.13;;;11.37;;
55647;SDS011;45266;48.756;9.246;2022-11-14T03:02:21;18.30;;;11.30;;
55647;SDS011;45266;48.756;9.246;2022-11-14T03:03:23;18.20;;;11.30;;
55647;SDS011;45266;48.756;9.246;2022-11-14T03:04:25;18.30;;;11.13;;
55647;SDS011;45266;48.756;9.246;2022-11-14T03:05:26;19.37;;;11.27;;
55647;SDS011;45266;48.756;9.246;2022-11-14T03:06:28;17.17;;;10.20;;
55647;SDS011;45266;48.756;9.246;2022-11-14T03:07:30;16.80;;;10.67;;
55647;SDS011;45266;48.756;9.246;2022-11-14T03:08:32;17.13;;;10.43;;
55647;SDS011;45266;48.756;9.246;2022-11-14T03:09:34;16.30;;;10.30;;
55647;SDS011;45266;48.756;9.246;2022-11-14T03:10:35;17.60;;;10.50;;
55647;SDS011;45266;48.756;9.246;2022-11-14T03:11:37;18.67;;;11.40;;
55647;SDS011;45266;48.756;9.246;2022-11-14T03:12:39;17.87;;;10.50;;
55647;SDS011;45266;48.756;9.246;2022-11-14T03:13:41;18.90;;;11.17;;
55647;SDS011;45266;48.756;9.246;2022-11-14T03:14:42;16.50;;;10.83;;
55647;SDS011;45266;48.756;9.246;2022-11-14T03:15:44;16.63;;;10.93;;
55647;SDS011;45266;48.756;9.246;2022-11-14T03:16:46;18.00;;;11.47;;
55647;SDS011;45266;48.756;9.246;2022-11-14T03:17:48;17.70;;;11.00;;
55647;SDS011;45266;48.756;9.246;2022-11-14T03:18:50;18.27;;;11.00;;
55647;SDS011;45266;48.756;9.246;2022-11-14T03:19:52;20.40;;;11.13;;
55647;SDS011;45266;48.756;9.246;2022-11-14T03:20:54;17.57;;;10.30;;
55647;SDS011;45266;48.756;9.246;2022-11-14T03:21:55;17.87;;;11.00;;
55647;SDS011;45266;48.756;9.246;2022-11-14T03:22:57;17.53;;;10.93;;
55647;SDS011;45266;48.756;9.246;2022-11-14T03:23:59;17.87;;;11.53;;
55647;SDS011;45266;48.756;9.246;2022-11-14T03:25:00;18.90;;;11.37;;
55647;SDS011;45266;48.756;9.246;2022-11-14T03:26:03;16.73;;;11.20;;
55647;SDS011;45266;48.756;9.246;2022-11-14T03:27:07;17.13;;;10.93;;
55647;SDS011;45266;48.756;9.246;2022-11-14T03:28:08;18.70;;;11.50;;
55647;SDS011;45266;48.756;9.246;2022-11-14T03:29:10;18.13;;;11.30;;
55647;SDS011;45266;48.756;9.246;2022-11-14T03:30:12;16.60;;;10.90;;
55647;SDS011;45266;48.756;9.246;2022-11-14T03:31:14;17.83;;;11.20;;
55647;SDS011;45266;48.756;9.246;2022-11-14T03:32:16;17.07;;;10.93;;
55647;SDS011;45266;48.756;9.246;2022-11-14T03:33:18;17.97;;;10.87;;
55647;SDS011;45266;48.756;9.246;2022-11-14T03:34:20;17.53;;;10.60;;
55647;SDS011;45266;48.756;9.246;2022-11-14T03:35:22;20.20;;;10.60;;
55647;SDS011;45266;48.756;9.246;2022-11-14T03:36:24;18.73;;;11.73;;
55647;SDS011;45266;48.756;9.246;2022-11-14T03:37:25;17.53;;;10.40;;
55647;SDS011;45266;48.756;9.246;2022-11-14T03:38:27;15.73;;;10.93;;
55647;SDS011;45266;48.756;9.246;2022-11-14T03:39:30;17.87;;;10.50;;
55647;SDS011;45266;48.756;9.246;2022-11-14T03:40:31;16.10;;;10.20;;
55647;SDS011;45266;48.756;9.246;2022-11-14T03:41:33;16.23;;;10.20;;
55647;SDS011;45266;48.756;9.246;2022-11-14T03:42:35;15.30;;;9.87;;
55647;SDS011;45266;48.756;9.246;2022-11-14T03:43:37;16.40;;;10.87;;
55647;SDS011;45266;48.756;9.246;2022-11-14T03:44:38;15.70;;;10.23;;
55647;SDS011;45266;48.756;9.246;2022-11-14T03:45:40;16.93;;;11.43;;
55647;SDS011;45266;48.756;9.246;2022-11-14T03:46:42;18.87;;;10.70;;
55647;SDS011;45266;48.756;9.246;2022-11-14T03:47:44;18.43;;;12.43;;
55647;SDS011;45266;48.756;9.246;2022-11-14T03:48:45;18.43;;;11.97;;
55647;SDS011;45266;48.756;9.246;2022-11-14T03:49:47;18.97;;;12.70;;
55647;SDS011;45266;48.756;9.246;2022-11-14T03:50:49;19.63;;;12.70;;
55647;SDS011;45266;48.756;9.246;2022-11-14T03:51:50;18.73;;;12.33;;
55647;SDS011;45266;48.756;9.246;2022-11-14T03:52:52;21.70;;;13.53;;
55647;SDS011;45266;48.756;9.246;2022-11-14T03:53:55;20.50;;;13.47;;
55647;SDS011;45266;48.756;9.246;2022-11-14T03:54:56;23.43;;;14.57;;
55647;SDS011;45266;48.756;9.246;2022-11-14T03:55:58;31.10;;;19.17;;
55647;SDS011;45266;48.756;9.246;2022-11-14T03:57:00;28.33;;;16.33;;
55647;SDS011;45266;48.756;9.246;2022-11-14T03:58:01;26.90;;;17.27;;
55647;SDS011;45266;48.756;9.246;2022-11-14T03:59:03;23.90;;;15.13;;
55647;SDS011;45266;48.756;9.246;2022-11-14T04:00:05;24.43;;;15.97;;
55647;SDS011;45266;48.756;9.246;2022-11-14T04:01:07;23.70;;;14.87;;
55647;SDS011;45266;48.756;9.246;2022-11-14T04:02:09;20.77;;;13.93;;
55647;SDS011;45266;48.756;9.246;2022-11-14T04:03:11;23.73;;;14.73;;
55647;SDS011;45266;48.756;9.246;2022-11-14T04:04:12;22.77;;;14.90;;
55647;SDS011;45266;48.756;9.246;2022-11-14T04:05:14;22.60;;;15.20;;
55647;SDS011;45266;48.756;9.246;2022-11-14T04:06:16;24.20;;;14.50;;
55647;SDS011;45266;48.756;9.246;2022-11-14T04:07:18;23.93;;;14.80;;
55647;SDS011;45266;48.756;9.246;2022-11-14T04:08:19;26.80;;;15.33;;
55647;SDS011;45266;48.756;9.246;2022-11-14T04:09:22;23.00;;;15.23;;
55647;SDS011;45266;48.756;9.246;2022-11-14T04:10:23;26.00;;;15.93;;
55647;SDS011;45266;48.756;9.246;2022-11-14T04:11:25;35.93;;;21.60;;
55647;SDS011;45266;48.756;9.246;2022-11-14T04:12:27;24.10;;;16.63;;
55647;SDS011;45266;48.756;9.246;2022-11-14T04:13:28;24.83;;;16.20;;
55647;SDS011;45266;48.756;9.246;2022-11-14T04:14:30;23.33;;;15.37;;
55647;SDS011;45266;48.756;9.246;2022-11-14T04:15:32;24.40;;;16.13;;
55647;SDS011;45266;48.756;9.246;2022-11-14T04:16:34;25.07;;;15.93;;
55647;SDS011;45266;48.756;9.246;2022-11-14T04:17:35;24.17;;;16.60;;
55647;SDS011;45266;48.756;9.246;2022-11-14T04:18:40;31.43;;;19.60;;
55647;SDS011;45266;48.756;9.246;2022-11-14T04:19:42;26.07;;;16.97;;
55647;SDS011;45266;48.756;9.246;2022-11-14T04:20:43;27.07;;;17.33;;
55647;SDS011;45266;48.756;9.246;2022-11-14T04:21:45;27.47;;;17.63;;
55647;SDS011;45266;48.756;9.246;2022-11-14T04:22:47;24.73;;;16.23;;
55647;SDS011;45266;48.756;9.246;2022-11-14T04:23:48;28.23;;;16.63;;
55647;SDS011;45266;48.756;9.246;2022-11-14T04:24:56;28.43;;;18.03;;
55647;SDS011;45266;48.756;9.246;2022-11-14T04:25:59;26.13;;;17.20;;
55647;SDS011;45266;48.756;9.246;2022-11-14T04:27:01;25.63;;;16.23;;
55647;SDS011;45266;48.756;9.246;2022-11-14T04:28:02;26.50;;;16.73;;
55647;SDS011;45266;48.756;9.246;2022-11-14T04:29:04;25.53;;;16.53;;
55647;SDS011;45266;48.756;9.246;2022-11-14T04:30:06;24.33;;;16.03;;
55647;SDS011;45266;48.756;9.246;2022-11-14T04:31:11;24.33;;;15.20;;
55647;SDS011;45266;48.756;9.246;2022-11-14T04:32:13;21.60;;;14.27;;
55647;SDS011;45266;48.756;9.246;2022-11-14T04:33:15;21.50;;;14.63;;
55647;SDS011;45266;48.756;9.246;2022-11-14T04:34:17;21.97;;;14.10;;
55647;SDS011;45266;48.756;9.246;2022-11-14T04:35:18;23.73;;;14.87;;
55647;SDS011;45266;48.756;9.246;2022-11-14T04:36:20;20.77;;;13.77;;
55647;SDS011;45266;48.756;9.246;2022-11-14T04:37:22;22.63;;;14.07;;
55647;SDS011;45266;48.756;9.246;2022-11-14T04:38:24;20.60;;;14.03;;
55647;SDS011;45266;48.756;9.246;2022-11-14T04:39:25;23.30;;;14.40;;
55647;SDS011;45266;48.756;9.246;2022-11-14T04:40:27;22.53;;;14.60;;
55647;SDS011;45266;48.756;9.246;2022-11-14T04:41:29;19.57;;;13.87;;
55647;SDS011;45266;48.756;9.246;2022-11-14T04:42:31;20.70;;;14.17;;
55647;SDS011;45266;48.756;9.246;2022-11-14T04:43:32;21.43;;;14.37;;
55647;SDS011;45266;48.756;9.246;2022-11-14T04:44:34;21.57;;;14.17;;
55647;SDS011;45266;48.756;9.246;2022-11-14T04:45:36;21.00;;;13.53;;
55647;SDS011;45266;48.756;9.246;2022-11-14T04:46:37;19.07;;;13.50;;
55647;SDS011;45266;48.756;9.246;2022-11-14T04:47:40;21.43;;;14.40;;
55647;SDS011;45266;48.756;9.246;2022-11-14T04:48:42;20.23;;;13.33;;
55647;SDS011;45266;48.756;9.246;2022-11-14T04:49:43;20.87;;;14.23;;
55647;SDS011;45266;48.756;9.246;2022-11-14T04:50:45;23.20;;;14.57;;
55647;SDS011;45266;48.756;9.246;2022-11-14T04:51:47;20.80;;;14.30;;
55647;SDS011;45266;48.756;9.246;2022-11-14T04:52:52;19.03;;;14.53;;
55647;SDS011;45266;48.756;9.246;2022-11-14T04:53:54;21.10;;;12.80;;
55647;SDS011;45266;48.756;9.246;2022-11-14T04:54:55;21.70;;;14.70;;
55647;SDS011;45266;48.756;9.246;2022-11-14T04:55:57;22.47;;;14.63;;
55647;SDS011;45266;48.756;9.246;2022-11-14T04:56:59;22.10;;;15.40;;
55647;SDS011;45266;48.756;9.246;2022-11-14T04:58:00;20.67;;;14.63;;
55647;SDS011;45266;48.756;9.246;2022-11-14T04:59:02;21.10;;;14.37;;
55647;SDS011;45266;48.756;9.246;2022-11-14T05:00:04;21.77;;;14.93;;
55647;SDS011;45266;48.756;9.246;2022-11-14T05:01:07;23.10;;;15.10;;
55647;SDS011;45266;48.756;9.246;2022-11-14T05:02:13;23.97;;;15.73;;
55647;SDS011;45266;48.756;9.246;2022-11-14T05:03:15;26.33;;;16.07;;
55647;SDS011;45266;48.756;9.246;2022-11-14T05:04:17;26.00;;;16.10;;
55647;SDS011;45266;48.756;9.246;2022-11-14T05:05:18;26.10;;;16.53;;
55647;SDS011;45266;48.756;9.246;2022-11-14T05:06:20;22.33;;;14.77;;
55647;SDS011;45266;48.756;9.246;2022-11-14T05:07:22;23.23;;;15.37;;
55647;SDS011;45266;48.756;9.246;2022-11-14T05:08:24;23.13;;;14.93;;
55647;SDS011;45266;48.756;9.246;2022-11-14T05:09:25;22.67;;;15.73;;
55647;SDS011;45266;48.756;9.246;2022-11-14T05:10:27;21.23;;;15.03;;
55647;SDS011;45266;48.756;9.246;2022-11-14T05:11:29;22.23;;;14.27;;
55647;SDS011;45266;48.756;9.246;2022-11-14T05:12:30;23.90;;;14.67;;
55647;SDS011;45266;48.756;9.246;2022-11-14T05:13:32;21.17;;;14.40;;
55647;SDS011;45266;48.756;9.246;2022-11-14T05:14:34;25.87;;;15.17;;
55647;SDS011;45266;48.756;9.246;2022-11-14T05:15:35;22.13;;;14.70;;
55647;SDS011;45266;48.756;9.246;2022-11-14T05:16:37;23.23;;;14.87;;
55647;SDS011;45266;48.756;9.246;2022-11-14T05:17:39;24.33;;;14.60;;
55647;SDS011;45266;48.756;9.246;2022-11-14T05:18:41;23.07;;;15.63;;
55647;SDS011;45266;48.756;9.246;2022-11-14T05:19:47;65.53;;;36.83;;
55647;SDS011;45266;48.756;9.246;2022-11-14T05:20:49;29.93;;;19.10;;
55647;SDS011;45266;48.756;9.246;2022-11-14T05:21:51;27.87;;;16.77;;
55647;SDS011;45266;48.756;9.246;2022-11-14T05:22:53;22.93;;;14.73;;
55647;SDS011;45266;48.756;9.246;2022-11-14T05:23:56;22.20;;;15.33;;
55647;SDS011;45266;48.756;9.246;2022-11-14T05:24:58;21.87;;;14.10;;
55647;SDS011;45266;48.756;9.246;2022-11-14T05:26:03;20.83;;;14.23;;
55647;SDS011;45266;48.756;9.246;2022-11-14T05:27:06;22.83;;;14.37;;
55647;SDS011;45266;48.756;9.246;2022-11-14T05:28:08;23.00;;;13.93;;
55647;SDS011;45266;48.756;9.246;2022-11-14T05:29:10;20.57;;;13.73;;
55647;SDS011;45266;48.756;9.246;2022-11-14T05:30:12;21.40;;;14.37;;
55647;SDS011;45266;48.756;9.246;2022-11-14T05:31:14;20.20;;;13.47;;
55647;SDS011;45266;48.756;9.246;2022-11-14T05:32:19;21.23;;;13.93;;
55647;SDS011;45266;48.756;9.246;2022-11-14T05:33:22;18.07;;;13.90;;
55647;SDS011;45266;48.756;9.246;2022-11-14T05:34:23;19.60;;;13.70;;
55647;SDS011;45266;48.756;9.246;2022-11-14T05:35:25;21.90;;;15.23;;
55647;SDS011;45266;48.756;9.246;2022-11-14T05:36:27;21.97;;;16.00;;
55647;SDS011;45266;48.756;9.246;2022-11-14T05:37:28;22.07;;;15.43;;
55647;SDS011;45266;48.756;9.246;2022-11-14T05:38:30;22.37;;;15.23;;
55647;SDS011;45266;48.756;9.246;2022-11-14T05:39:32;22.30;;;15.63;;
55647;SDS011;45266;48.756;9.246;2022-11-14T05:40:36;23.13;;;15.27;;
55647;SDS011;45266;48.756;9.246;2022-11-14T05:41:38;22.13;;;14.40;;
55647;SDS011;45266;48.756;9.246;2022-11-14T05:42:39;22.17;;;14.60;;
55647;SDS011;45266;48.756;9.246;2022-11-14T05:43:41;24.17;;;15.57;;
55647;SDS011;45266;48.756;9.246;2022-11-14T05:44:43;20.03;;;14.60;;
55647;SDS011;45266;48.756;9.246;2022-11-14T05:45:45;20.73;;;14.30;;
55647;SDS011;45266;48.756;9.246;2022-11-14T05:46:47;23.50;;;14.30;;
55647;SDS011;45266;48.756;9.246;2022-11-14T05:47:50;23.17;;;14.67;;
55647;SDS011;45266;48.756;9.246;2022-11-14T05:48:54;21.40;;;14.23;;
55647;SDS011;45266;48.756;9.246;2022-11-14T05:49:55;19.93;;;14.53;;
55647;SDS011;45266;48.756;9.246;2022-11-14T05:50:58;23.80;;;15.67;;
55647;SDS011;45266;48.756;9.246;2022-11-14T05:52:02;21.57;;;14.47;;
55647;SDS011;45266;48.756;9.246;2022-11-14T05:53:04;23.30;;;14.83;;
55647;SDS011;45266;48.756;9.246;2022-11-14T05:54:06;21.10;;;14.77;;
55647;SDS011;45266;48.756;9.246;2022-11-14T05:55:08;22.20;;;15.37;;
55647;SDS011;45266;48.756;9.246;2022-11-14T05:56:10;23.13;;;14.67;;
55647;SDS011;45266;48.756;9.246;2022-11-14T05:57:13;18.77;;;13.83;;
55647;SDS011;45266;48.756;9.246;2022-11-14T05:58:14;20.63;;;13.77;;
55647;SDS011;45266;48.756;9.246;2022-11-14T05:59:16;19.70;;;13.53;;
55647;SDS011;45266;48.756;9.246;2022-11-14T06:00:18;21.37;;;14.43;;
55647;SDS011;45266;48.756;9.246;2022-11-14T06:01:20;21.53;;;14.17;;
55647;SDS011;45266;48.756;9.246;2022-11-14T06:02:21;23.50;;;14.73;;
55647;SDS011;45266;48.756;9.246;2022-11-14T06:03:23;22.63;;;15.00;;
55647;SDS011;45266;48.756;9.246;2022-11-14T06:04:25;22.77;;;14.57;;
55647;SDS011;45266;48.756;9.246;2022-11-14T06:05:27;24.67;;;16.20;;
55647;SDS011;45266;48.756;9.246;2022-11-14T06:06:29;21.20;;;14.30;;
55647;SDS011;45266;48.756;9.246;2022-11-14T06:07:30;22.17;;;14.43;;
55647;SDS011;45266;48.756;9.246;2022-11-14T06:08:32;22.87;;;15.50;;
55647;SDS011;45266;48.756;9.246;2022-11-14T06:09:35;19.83;;;13.93;;
55647;SDS011;45266;48.756;9.246;2022-11-14T06:10:36;22.67;;;14.60;;
55647;SDS011;45266;48.756;9.246;2022-11-14T06:11:38;21.20;;;14.03;;
55647;SDS011;45266;48.756;9.246;2022-11-14T06:12:40;21.17;;;14.77;;
55647;SDS011;45266;48.756;9.246;2022-11-14T06:13:42;22.63;;;14.53;;
55647;SDS011;45266;48.756;9.246;2022-11-14T06:14:47;20.13;;;14.27;;
55647;SDS011;45266;48.756;9.246;2022-11-14T06:15:49;20.73;;;14.20;;
55647;SDS011;45266;48.756;9.246;2022-11-14T06:16:51;19.17;;;13.13;;
55647;SDS011;45266;48.756;9.246;2022-11-14T06:17:53;19.57;;;13.57;;
55647;SDS011;45266;48.756;9.246;2022-11-14T06:18:55;21.50;;;14.57;;